Time;durP1;ratioP1;P1;durP2;ratioP2;P2;SDS_P1;SDS_P2;PMS_P1;PMS_P2;Temp;Humidity;BMP_temperature;BMP_pressure;BME280_temperature;BME280_humidity;BME280_pressure;Samples;Min_cycle;Max_cycle;Signal;HPM_P1;HPM_P2
2022/06/12 00:02:23;;;;;;;11.50;4.63;;;11.90;99.90;;;;;;5041977;28;20044;-66
2022/06/12 00:04:49;;;;;;;9.68;4.82;;;11.90;99.90;;;;;;5036714;28;20290;-66
2022/06/12 00:07:14;;;;;;;11.55;4.72;;;11.90;99.90;;;;;;5034882;28;20406;-66
2022/06/12 00:09:40;;;;;;;11.52;4.80;;;11.90;99.90;;;;;;5059068;28;20047;-66
2022/06/12 00:12:06;;;;;;;11.93;5.07;;;11.90;99.90;;;;;;5037445;28;20033;-65
2022/06/12 00:14:32;;;;;;;14.60;4.88;;;11.80;99.90;;;;;;5043714;28;20036;-65
2022/06/12 00:16:57;;;;;;;13.00;4.90;;;11.80;99.90;;;;;;5044890;28;20094;-65
2022/06/12 00:19:23;;;;;;;13.68;4.75;;;11.60;99.90;;;;;;5045096;28;20663;-65
2022/06/12 00:21:50;;;;;;;11.23;4.75;;;11.50;99.90;;;;;;5027326;28;20036;-66
2022/06/12 00:24:18;;;;;;;14.43;4.97;;;11.50;99.90;;;;;;5045276;28;20085;-65
2022/06/12 00:26:48;;;;;;;16.35;4.88;;;11.40;99.90;;;;;;5033630;28;20062;-65
2022/06/12 00:29:17;;;;;;;12.30;4.53;;;11.40;99.90;;;;;;5045847;28;20028;-65
2022/06/12 00:31:47;;;;;;;12.23;4.40;;;11.40;99.90;;;;;;5044705;28;20049;-65
2022/06/12 00:34:14;;;;;;;10.80;4.78;;;11.40;99.90;;;;;;5036874;28;20045;-65
2022/06/12 00:36:40;;;;;;;12.35;4.90;;;11.40;99.90;;;;;;5035997;28;20135;-65
2022/06/12 00:39:08;;;;;;;12.85;4.93;;;11.40;99.90;;;;;;5044904;28;20128;-66
2022/06/12 00:41:35;;;;;;;16.25;5.30;;;11.40;99.90;;;;;;5046044;28;20041;-65
2022/06/12 00:44:02;;;;;;;12.55;5.90;;;11.30;99.90;;;;;;5045176;28;20033;-65
2022/06/12 00:46:46;;;;;;;14.10;5.03;;;11.30;99.90;;;;;;5024398;28;20047;-65
2022/06/12 00:49:21;;;;;;;13.07;4.50;;;11.30;99.90;;;;;;5045584;28;20045;-65
2022/06/12 00:51:50;;;;;;;15.90;5.40;;;11.30;99.90;;;;;;5041703;28;20048;-65
2022/06/12 00:54:17;;;;;;;11.13;4.68;;;11.30;99.90;;;;;;5043900;28;20493;-65
2022/06/12 00:56:47;;;;;;;10.07;4.65;;;11.30;99.90;;;;;;5044902;28;20032;-65
2022/06/12 00:59:25;;;;;;;11.57;4.38;;;11.30;99.90;;;;;;5043641;28;20079;-65
2022/06/12 01:01:52;;;;;;;20.00;6.13;;;11.30;99.90;;;;;;5044947;28;20037;-65
2022/06/12 01:07:09;;;;;;;16.85;5.75;;;11.40;99.90;;;;;;5040377;28;20182;-65
2022/06/12 01:09:38;;;;;;;11.35;4.95;;;11.30;99.90;;;;;;5044254;28;20080;-65
2022/06/12 01:12:09;;;;;;;11.32;5.35;;;11.30;99.90;;;;;;5049436;28;20531;-65
2022/06/12 01:14:41;;;;;;;13.52;5.00;;;11.30;99.90;;;;;;5042517;28;20040;-65
2022/06/12 01:17:08;;;;;;;13.45;5.03;;;11.30;99.90;;;;;;5045871;28;20094;-64
2022/06/12 01:19:39;;;;;;;13.00;4.65;;;11.20;99.90;;;;;;5032097;28;20052;-65
2022/06/12 01:22:35;;;;;;;15.13;4.72;;;11.20;99.90;;;;;;5062066;28;20083;-65
2022/06/12 01:25:20;;;;;;;12.10;5.07;;;11.20;99.90;;;;;;5040578;28;20124;-65
2022/06/12 01:28:04;;;;;;;11.73;4.80;;;11.10;99.90;;;;;;5041153;28;20041;-65
2022/06/12 01:30:53;;;;;;;15.45;5.18;;;11.10;99.90;;;;;;5041019;28;20402;-65
2022/06/12 01:33:47;;;;;;;13.95;4.97;;;11.10;99.90;;;;;;5039145;28;20049;-65
2022/06/12 01:36:23;;;;;;;13.52;4.65;;;11.10;99.90;;;;;;5049538;28;20056;-65
2022/06/12 01:39:31;;;;;;;12.65;4.50;;;11.00;99.90;;;;;;5040797;28;20037;-65
2022/06/12 01:41:57;;;;;;;11.65;4.25;;;11.00;99.90;;;;;;5020860;28;20045;-65
2022/06/12 01:44:32;;;;;;;10.15;4.43;;;11.00;99.90;;;;;;5042777;28;20059;-64
2022/06/12 01:47:10;;;;;;;10.48;4.40;;;11.00;99.90;;;;;;5043179;28;20060;-65
2022/06/12 01:49:57;;;;;;;10.30;4.90;;;11.00;99.90;;;;;;5075377;28;20036;-65
2022/06/12 01:52:45;;;;;;;11.15;5.07;;;10.90;99.90;;;;;;5044999;28;20090;-64
2022/06/12 01:55:15;;;;;;;10.30;4.70;;;10.90;99.90;;;;;;5067258;28;20036;-65
2022/06/12 01:57:51;;;;;;;14.60;4.78;;;10.90;99.90;;;;;;5040374;28;20071;-65
2022/06/12 02:00:20;;;;;;;13.48;4.45;;;11.00;99.90;;;;;;5040040;28;20127;-64
2022/06/12 02:02:57;;;;;;;12.98;4.90;;;11.00;99.90;;;;;;5045302;28;20124;-65
2022/06/12 02:05:37;;;;;;;13.63;5.00;;;11.00;99.90;;;;;;5059121;28;20549;-65
2022/06/12 02:08:23;;;;;;;12.73;4.95;;;11.00;99.90;;;;;;5042044;28;20063;-65
2022/06/12 02:13:10;;;;;;;13.75;5.03;;;11.00;99.90;;;;;;5044204;28;20036;-65
2022/06/12 02:13:46;;;;;;;16.42;5.22;;;11.00;99.90;;;;;;5039795;28;20137;-65
2022/06/12 02:16:19;;;;;;;13.10;5.05;;;11.10;99.90;;;;;;5039999;28;20048;-65
2022/06/12 02:18:50;;;;;;;11.65;5.07;;;11.10;99.90;;;;;;5037248;28;20053;-65
2022/06/12 02:21:29;;;;;;;10.00;4.65;;;11.00;99.90;;;;;;5039755;28;20055;-65
2022/06/12 02:24:09;;;;;;;16.67;5.13;;;11.00;99.90;;;;;;5036748;28;20560;-65
2022/06/12 02:26:43;;;;;;;17.38;5.18;;;11.00;99.90;;;;;;5058118;28;20044;-65
2022/06/12 02:29:21;;;;;;;12.07;4.72;;;11.00;99.90;;;;;;5035636;28;20029;-65
2022/06/12 02:31:51;;;;;;;9.63;4.32;;;11.00;99.90;;;;;;5039999;28;20036;-65
2022/06/12 02:34:24;;;;;;;11.32;4.90;;;11.00;99.90;;;;;;5046258;28;20037;-65
2022/06/12 02:36:55;;;;;;;8.10;4.30;;;10.90;99.90;;;;;;5060893;28;20033;-65
2022/06/12 02:39:27;;;;;;;7.53;3.88;;;10.80;99.90;;;;;;5039525;28;20053;-65
2022/06/12 02:42:02;;;;;;;8.02;4.10;;;10.80;99.90;;;;;;5060084;28;20181;-65
2022/06/12 02:44:37;;;;;;;10.13;4.22;;;10.80;99.90;;;;;;5032869;28;20045;-65
2022/06/12 02:47:09;;;;;;;12.25;4.45;;;10.80;99.90;;;;;;5073232;28;20033;-65
2022/06/12 02:49:37;;;;;;;12.32;4.75;;;10.70;99.90;;;;;;5033698;28;20439;-65
2022/06/12 02:52:20;;;;;;;12.07;4.32;;;10.70;99.90;;;;;;5034277;28;20037;-65
2022/06/12 02:55:15;;;;;;;10.73;4.53;;;10.70;99.90;;;;;;5045991;28;20442;-65
2022/06/12 02:58:12;;;;;;;12.48;4.55;;;10.70;99.90;;;;;;5067913;28;20082;-65
2022/06/12 03:00:53;;;;;;;11.65;4.80;;;10.80;99.90;;;;;;5053853;28;20062;-65
2022/06/12 03:03:22;;;;;;;13.18;4.45;;;10.80;99.90;;;;;;5031597;28;20037;-65
2022/06/12 03:05:51;;;;;;;16.23;4.63;;;10.80;99.90;;;;;;5028312;28;20033;-65
2022/06/12 03:08:21;;;;;;;10.93;4.57;;;10.80;99.90;;;;;;5028930;28;20514;-65
2022/06/12 03:10:54;;;;;;;11.60;4.20;;;10.80;99.90;;;;;;5065413;28;20055;-64
2022/06/12 03:13:21;;;;;;;12.02;4.78;;;10.80;99.90;;;;;;5074170;28;20051;-65
2022/06/12 03:15:56;;;;;;;9.05;4.22;;;10.90;99.90;;;;;;5027409;28;20103;-64
2022/06/12 03:18:27;;;;;;;13.32;4.43;;;10.80;99.90;;;;;;5035791;28;20072;-65
2022/06/12 03:20:59;;;;;;;14.15;4.07;;;10.90;99.90;;;;;;5038053;28;20089;-65
2022/06/12 03:23:41;;;;;;;12.68;4.47;;;10.90;99.90;;;;;;5038766;28;20080;-65
2022/06/12 03:26:12;;;;;;;16.33;4.38;;;10.90;99.90;;;;;;5033930;28;20033;-65
2022/06/12 03:29:10;;;;;;;10.77;4.00;;;10.90;99.90;;;;;;5037183;28;20045;-65
2022/06/12 03:31:49;;;;;;;12.13;4.03;;;10.90;99.90;;;;;;4969286;28;20135;-65
2022/06/12 03:34:28;;;;;;;11.98;4.30;;;10.80;99.90;;;;;;5041147;28;20049;-65
2022/06/12 03:37:13;;;;;;;16.30;4.88;;;10.80;99.90;;;;;;5038296;28;20036;-65
2022/06/12 03:39:39;;;;;;;13.52;4.80;;;10.70;99.90;;;;;;5070813;28;20040;-65
2022/06/12 03:42:33;;;;;;;11.30;4.78;;;10.70;99.90;;;;;;5038109;28;20056;-65
2022/06/12 03:45:18;;;;;;;10.25;4.68;;;10.70;99.90;;;;;;5016017;28;20041;-65
2022/06/12 03:47:46;;;;;;;14.32;4.40;;;10.70;99.90;;;;;;5063872;28;20032;-65
2022/06/12 03:50:29;;;;;;;12.13;4.78;;;10.70;99.90;;;;;;5037199;28;20044;-65
2022/06/12 03:53:30;;;;;;;10.73;4.35;;;10.70;99.90;;;;;;5032748;28;20044;-65
2022/06/12 03:59:19;;;;;;;10.15;4.00;;;10.80;99.90;;;;;;5037113;28;20051;-65
2022/06/12 04:01:46;;;;;;;19.60;4.38;;;10.80;99.90;;;;;;5032484;28;20070;-65
2022/06/12 04:04:13;;;;;;;7.93;3.80;;;10.90;99.90;;;;;;5032072;28;20040;-65
2022/06/12 04:06:40;;;;;;;11.63;4.10;;;10.90;99.90;;;;;;5037672;28;20045;-65
2022/06/12 04:09:12;;;;;;;12.43;4.43;;;11.10;99.90;;;;;;5036360;28;20078;-65
2022/06/12 04:11:40;;;;;;;13.40;4.22;;;11.10;99.90;;;;;;5041306;28;20481;-65
2022/06/12 04:14:10;;;;;;;12.93;4.30;;;11.20;99.90;;;;;;5037180;28;20052;-64
2022/06/12 04:16:43;;;;;;;13.43;4.00;;;11.20;99.90;;;;;;5034697;28;20037;-65
2022/06/12 04:19:14;;;;;;;14.18;4.13;;;11.30;99.90;;;;;;5062738;28;20415;-65
2022/06/12 04:21:50;;;;;;;16.80;4.38;;;11.40;99.90;;;;;;5031915;28;20055;-65
2022/06/12 04:24:25;;;;;;;18.05;4.30;;;11.50;99.90;;;;;;5037909;28;20115;-65
2022/06/12 04:26:58;;;;;;;13.90;4.65;;;11.60;99.90;;;;;;5035499;28;20066;-65
2022/06/12 04:29:31;;;;;;;15.68;4.47;;;11.70;99.90;;;;;;5030071;28;20414;-65
2022/06/12 04:32:00;;;;;;;13.50;4.32;;;11.70;99.90;;;;;;5074236;28;21523;-65
2022/06/12 04:34:36;;;;;;;17.02;4.38;;;11.90;99.90;;;;;;5055090;28;20041;-65
2022/06/12 04:37:29;;;;;;;19.25;4.70;;;12.00;99.90;;;;;;5027021;28;20056;-65
2022/06/12 04:39:57;;;;;;;19.27;4.68;;;12.00;99.90;;;;;;5035426;28;20048;-65
2022/06/12 04:42:25;;;;;;;19.45;4.97;;;12.10;99.90;;;;;;5035677;28;20049;-65
2022/06/12 04:44:52;;;;;;;20.00;4.88;;;12.30;99.90;;;;;;5038175;28;20044;-65
2022/06/12 04:47:21;;;;;;;18.23;5.03;;;12.40;99.90;;;;;;5033747;28;20162;-65
2022/06/12 04:49:49;;;;;;;18.55;4.70;;;12.50;99.90;;;;;;5069971;28;20037;-65
2022/06/12 04:52:16;;;;;;;18.83;4.90;;;12.60;99.90;;;;;;5066415;28;20067;-65
2022/06/12 04:54:44;;;;;;;17.90;5.63;;;12.60;99.90;;;;;;5038540;28;20029;-64
2022/06/12 04:57:11;;;;;;;14.25;4.90;;;12.70;99.90;;;;;;5032698;28;20044;-65
2022/06/12 04:59:38;;;;;;;15.23;4.72;;;12.80;99.90;;;;;;5037798;28;20040;-65
2022/06/12 05:02:05;;;;;;;21.42;5.18;;;12.90;99.90;;;;;;5058719;28;20503;-64
2022/06/12 05:04:33;;;;;;;23.23;5.45;;;13.00;99.90;;;;;;5070438;28;20041;-64
2022/06/12 05:06:59;;;;;;;16.63;4.63;;;13.10;99.90;;;;;;5036837;28;20040;-65
2022/06/12 05:09:28;;;;;;;17.58;5.00;;;13.10;99.90;;;;;;5036941;28;20040;-66
2022/06/12 05:11:54;;;;;;;16.65;4.72;;;13.20;99.90;;;;;;5025893;28;20033;-65
2022/06/12 05:14:20;;;;;;;18.42;5.03;;;13.30;99.90;;;;;;5042798;28;20395;-65
2022/06/12 05:17:10;;;;;;;15.13;4.72;;;13.40;99.90;;;;;;5022490;28;20045;-65
2022/06/12 05:19:38;;;;;;;16.13;4.65;;;13.50;99.90;;;;;;5030077;28;20037;-65
2022/06/12 05:22:05;;;;;;;14.63;5.10;;;13.60;99.90;;;;;;5039956;28;20431;-65
2022/06/12 05:24:32;;;;;;;20.15;5.63;;;13.70;99.90;;;;;;5036547;28;20406;-65
2022/06/12 05:26:59;;;;;;;14.63;5.30;;;13.80;99.90;;;;;;5038630;28;20041;-65
2022/06/12 05:29:33;;;;;;;14.07;5.38;;;13.90;99.90;;;;;;5039161;28;20048;-66
2022/06/12 05:32:00;;;;;;;17.77;5.45;;;14.10;99.90;;;;;;5044350;28;20166;-65
2022/06/12 05:34:27;;;;;;;19.08;5.45;;;14.20;99.90;;;;;;5075541;28;20037;-65
2022/06/12 05:36:53;;;;;;;19.83;5.47;;;14.40;99.90;;;;;;5026034;28;20052;-65
2022/06/12 05:39:20;;;;;;;15.30;5.30;;;14.50;99.90;;;;;;5033787;28;20042;-65
2022/06/12 05:41:46;;;;;;;15.98;5.57;;;14.50;99.90;;;;;;5039419;28;20514;-65
2022/06/12 05:44:12;;;;;;;24.13;5.53;;;14.50;99.90;;;;;;5037864;28;20044;-65
2022/06/12 05:46:38;;;;;;;26.15;6.10;;;14.60;99.90;;;;;;5039154;28;20490;-66
2022/06/12 05:49:05;;;;;;;15.35;5.95;;;14.60;99.90;;;;;;5056364;28;20132;-65
2022/06/12 05:51:31;;;;;;;20.35;5.30;;;14.70;99.90;;;;;;5034636;28;20649;-66
2022/06/12 05:53:57;;;;;;;20.23;5.78;;;14.80;99.90;;;;;;5035307;28;20502;-65
2022/06/12 05:56:24;;;;;;;20.52;5.85;;;14.80;99.90;;;;;;5032620;28;20040;-65
2022/06/12 05:58:50;;;;;;;22.85;5.72;;;14.80;99.90;;;;;;5042426;28;20502;-65
2022/06/12 06:01:19;;;;;;;20.00;5.97;;;14.80;99.90;;;;;;5027891;28;21571;-65
2022/06/12 06:03:45;;;;;;;22.55;5.90;;;14.90;99.90;;;;;;5038724;28;20052;-65
2022/06/12 06:06:16;;;;;;;24.40;5.82;;;15.10;99.90;;;;;;5041903;28;20039;-68
2022/06/12 06:08:42;;;;;;;16.50;6.32;;;15.30;99.90;;;;;;5056664;28;20479;-65
2022/06/12 06:11:08;;;;;;;19.48;6.35;;;15.30;99.90;;;;;;5036391;28;20087;-65
2022/06/12 06:13:34;;;;;;;26.92;6.35;;;15.40;99.90;;;;;;5040247;28;20044;-65
2022/06/12 06:16:00;;;;;;;21.70;6.22;;;15.40;99.90;;;;;;5035023;28;20077;-66
2022/06/12 06:18:26;;;;;;;23.17;6.63;;;15.40;99.90;;;;;;5019792;28;20148;-66
2022/06/12 06:20:52;;;;;;;20.02;6.50;;;15.40;99.90;;;;;;5034610;28;20512;-66
2022/06/12 06:23:17;;;;;;;25.38;6.43;;;15.50;99.90;;;;;;5034931;28;20036;-66
2022/06/12 06:25:44;;;;;;;23.52;7.28;;;15.60;99.90;;;;;;5033487;28;20037;-66
2022/06/12 06:28:11;;;;;;;19.67;5.97;;;15.60;99.90;;;;;;5031709;28;20055;-67
2022/06/12 06:30:37;;;;;;;26.02;6.97;;;15.70;99.90;;;;;;5040016;28;20052;-69
2022/06/12 06:33:03;;;;;;;29.02;6.97;;;15.70;99.90;;;;;;5034230;28;20045;-66
2022/06/12 06:35:29;;;;;;;30.63;7.13;;;15.80;99.90;;;;;;5026742;28;20040;-67
2022/06/12 06:37:55;;;;;;;28.55;7.40;;;15.90;99.90;;;;;;5020471;28;20048;-69
2022/06/12 06:40:23;;;;;;;29.30;7.50;;;15.90;99.90;;;;;;5023058;28;20098;-66
2022/06/12 06:42:49;;;;;;;30.38;7.30;;;15.90;99.90;;;;;;5024285;28;20041;-67
2022/06/12 06:48:00;;;;;;;29.30;7.38;;;15.80;99.90;;;;;;5020188;28;20094;-65
2022/06/12 06:50:27;;;;;;;24.67;6.60;;;16.00;99.90;;;;;;5029205;28;20445;-66
2022/06/12 06:52:53;;;;;;;28.08;7.47;;;16.10;99.90;;;;;;5043904;28;20106;-68
2022/06/12 06:55:19;;;;;;;29.33;7.97;;;16.20;99.90;;;;;;5021367;28;20049;-68
2022/06/12 06:57:47;;;;;;;28.35;7.65;;;16.30;99.90;;;;;;5071292;28;20051;-67
2022/06/12 07:00:23;;;;;;;29.90;7.50;;;16.40;99.90;;;;;;5026074;28;20411;-68
2022/06/12 07:02:49;;;;;;;25.58;7.75;;;16.40;99.90;;;;;;5040103;28;20033;-67
2022/06/12 07:05:15;;;;;;;28.27;6.70;;;16.40;99.90;;;;;;5030318;28;20030;-67
2022/06/12 07:07:41;;;;;;;42.10;8.32;;;16.40;99.90;;;;;;5028894;28;20047;-65
2022/06/12 07:10:11;;;;;;;28.90;7.85;;;16.50;99.90;;;;;;5037973;28;20037;-66
2022/06/12 07:12:37;;;;;;;29.25;8.40;;;16.60;99.90;;;;;;5041836;28;20394;-67
2022/06/12 07:15:03;;;;;;;31.35;8.45;;;16.60;99.90;;;;;;5023138;28;20033;-67
2022/06/12 07:17:29;;;;;;;31.70;8.27;;;16.60;99.90;;;;;;5021879;28;20040;-69
2022/06/12 07:19:54;;;;;;;27.90;7.13;;;16.70;99.90;;;;;;5032682;28;20045;-69
2022/06/12 07:22:21;;;;;;;26.00;6.88;;;16.90;99.90;;;;;;5029654;28;20032;-69
2022/06/12 07:24:46;;;;;;;29.95;7.57;;;17.10;99.90;;;;;;5014867;28;20045;-67
2022/06/12 07:27:12;;;;;;;26.42;7.28;;;17.20;99.90;;;;;;5025052;28;20044;-69
2022/06/12 07:29:38;;;;;;;28.23;7.05;;;17.30;99.90;;;;;;5022656;28;20597;-66
2022/06/12 07:32:04;;;;;;;29.92;8.25;;;17.30;99.90;;;;;;5025592;28;20089;-66
2022/06/12 07:34:29;;;;;;;32.53;8.18;;;17.30;99.90;;;;;;5034853;28;20170;-67
2022/06/12 07:36:55;;;;;;;32.25;7.88;;;17.40;99.90;;;;;;5036426;28;20507;-68
2022/06/12 07:39:28;;;;;;;26.70;8.50;;;17.60;99.90;;;;;;5026163;28;20453;-66
2022/06/12 07:41:54;;;;;;;27.45;7.05;;;17.70;99.90;;;;;;5070090;28;20032;-67
2022/06/12 07:44:23;;;;;;;35.20;7.43;;;17.70;99.90;;;;;;5036204;28;20044;-67
2022/06/12 07:46:51;;;;;;;30.75;7.35;;;17.80;99.90;;;;;;5030895;28;20041;-70
2022/06/12 07:49:17;;;;;;;32.33;6.88;;;17.90;99.90;;;;;;5053104;28;20052;-69
2022/06/12 07:51:43;;;;;;;29.15;6.93;;;18.00;99.90;;;;;;5034911;28;20082;-67
2022/06/12 07:54:09;;;;;;;26.80;7.07;;;18.00;99.90;;;;;;5041730;28;20047;-70
2022/06/12 07:56:36;;;;;;;27.70;6.53;;;18.20;99.90;;;;;;5037192;28;20040;-69
2022/06/12 07:59:03;;;;;;;24.02;6.93;;;18.30;99.90;;;;;;5026584;28;20045;-69
2022/06/12 08:01:29;;;;;;;27.80;7.60;;;18.40;99.90;;;;;;5071211;28;20402;-68
2022/06/12 08:03:56;;;;;;;23.15;6.93;;;18.50;99.90;;;;;;5030263;28;20044;-68
2022/06/12 08:06:23;;;;;;;26.27;6.63;;;18.60;99.90;;;;;;5040613;28;20182;-68
2022/06/12 08:08:48;;;;;;;26.75;7.15;;;18.70;99.90;;;;;;5033207;28;20048;-69
2022/06/12 08:11:14;;;;;;;29.58;7.07;;;18.80;99.90;;;;;;5033170;28;20045;-69
2022/06/12 08:13:41;;;;;;;27.67;6.75;;;18.90;99.90;;;;;;5032335;28;20063;-68
2022/06/12 08:16:07;;;;;;;22.98;7.10;;;18.90;99.90;;;;;;5034423;28;20472;-66
2022/06/12 08:18:32;;;;;;;26.65;6.45;;;18.90;99.90;;;;;;5021184;28;20126;-69
2022/06/12 08:21:03;;;;;;;27.63;7.18;;;18.90;99.90;;;;;;5037110;28;20076;-69
2022/06/12 08:23:37;;;;;;;24.08;6.65;;;19.00;99.90;;;;;;5032735;28;20060;-69
2022/06/12 08:26:02;;;;;;;31.05;7.28;;;19.00;99.90;;;;;;5025228;28;20044;-68
2022/06/12 08:28:31;;;;;;;27.38;6.20;;;19.10;99.90;;;;;;5043986;28;20040;-69
2022/06/12 08:30:59;;;;;;;27.63;7.57;;;19.20;99.90;;;;;;5054358;28;20106;-67
2022/06/12 08:33:25;;;;;;;25.10;6.85;;;19.40;99.90;;;;;;5032077;28;20094;-69
2022/06/12 08:35:51;;;;;;;27.70;7.30;;;19.30;99.90;;;;;;5036718;28;20430;-68
2022/06/12 08:38:17;;;;;;;28.13;6.97;;;19.10;99.90;;;;;;5038984;28;20424;-68
2022/06/12 08:40:49;;;;;;;20.95;6.32;;;19.10;99.90;;;;;;5033633;28;20029;-68
2022/06/12 08:43:38;;;;;;;20.85;6.47;;;19.10;99.90;;;;;;5066481;28;20073;-66
2022/06/12 08:46:13;;;;;;;25.23;6.90;;;19.20;99.90;;;;;;5035862;28;20043;-67
2022/06/12 08:48:53;;;;;;;19.10;6.75;;;19.30;99.90;;;;;;5035747;28;20048;-69
2022/06/12 08:51:39;;;;;;;18.27;6.10;;;19.40;99.90;;;;;;5071742;28;20048;-68
2022/06/12 08:54:14;;;;;;;28.75;7.25;;;19.40;99.90;;;;;;5038397;28;20136;-67
2022/06/12 08:57:16;;;;;;;21.58;6.63;;;19.40;99.90;;;;;;5037252;28;20852;-68
2022/06/12 09:00:08;;;;;;;21.25;5.78;;;19.60;99.90;;;;;;5015066;28;20057;-69
2022/06/12 09:02:37;;;;;;;23.67;6.03;;;19.90;99.90;;;;;;5052533;28;20509;-67
2022/06/12 09:05:06;;;;;;;23.08;6.18;;;20.10;99.90;;;;;;5034172;28;20045;-67
2022/06/12 09:07:47;;;;;;;16.10;5.10;;;20.00;99.90;;;;;;5072438;28;20147;-68
2022/06/12 09:10:25;;;;;;;16.55;4.75;;;19.80;99.90;;;;;;5040031;28;20036;-66
2022/06/12 09:12:57;;;;;;;16.05;5.35;;;19.70;99.90;;;;;;5036870;28;20041;-66
2022/06/12 09:16:05;;;;;;;15.65;4.60;;;19.70;99.90;;;;;;5055886;28;20032;-68
2022/06/12 09:18:43;;;;;;;18.40;4.80;;;19.50;99.90;;;;;;5031754;28;20129;-65
2022/06/12 09:21:19;;;;;;;18.73;4.60;;;19.50;99.90;;;;;;5065506;28;20124;-68
2022/06/12 09:23:56;;;;;;;15.52;4.45;;;19.50;99.90;;;;;;5035589;28;20038;-66
2022/06/12 09:26:52;;;;;;;13.10;4.35;;;19.60;99.90;;;;;;5041190;28;20045;-67
2022/06/12 09:29:50;;;;;;;14.70;4.80;;;19.60;99.90;;;;;;5036856;28;20060;-68
2022/06/12 09:32:49;;;;;;;14.40;4.60;;;19.70;99.90;;;;;;5036813;28;20151;-66
2022/06/12 09:35:30;;;;;;;15.70;4.60;;;19.90;99.90;;;;;;5030866;28;20052;-68
2022/06/12 09:38:33;;;;;;;15.77;4.57;;;20.30;99.90;;;;;;5072964;28;20044;-67
2022/06/12 09:41:13;;;;;;;15.30;4.38;;;20.40;99.90;;;;;;5047971;28;20494;-68
2022/06/12 09:44:01;;;;;;;15.75;4.35;;;20.30;99.90;;;;;;5028604;28;20363;-70
2022/06/12 09:46:52;;;;;;;14.48;4.40;;;20.20;99.90;;;;;;4995633;28;20053;-66
2022/06/12 09:49:38;;;;;;;16.13;4.15;;;19.90;99.90;;;;;;5071360;28;20044;-66
2022/06/12 09:52:39;;;;;;;17.17;4.05;;;19.80;99.90;;;;;;5044524;28;20037;-64
2022/06/12 09:55:30;;;;;;;14.35;3.90;;;19.90;99.90;;;;;;5036114;28;20766;-67
2022/06/12 09:58:06;;;;;;;18.75;4.13;;;20.10;99.90;;;;;;5022913;28;20056;-66
2022/06/12 10:00:40;;;;;;;13.25;4.18;;;20.00;99.90;;;;;;5021479;28;20036;-65
2022/06/12 10:03:21;;;;;;;14.27;4.00;;;20.10;99.90;;;;;;5058767;28;20116;-66
2022/06/12 10:06:03;;;;;;;18.35;3.95;;;20.20;99.90;;;;;;5065928;28;20124;-65
2022/06/12 10:08:40;;;;;;;19.08;4.30;;;20.50;99.90;;;;;;5028602;28;20039;-67
2022/06/12 10:11:11;;;;;;;15.50;4.43;;;20.50;99.90;;;;;;5027216;28;20609;-65
2022/06/12 10:13:57;;;;;;;13.70;4.07;;;20.50;99.90;;;;;;5024755;28;20060;-67
2022/06/12 10:16:28;;;;;;;12.75;3.45;;;20.70;99.90;;;;;;5022780;28;20143;-67
2022/06/12 10:19:08;;;;;;;10.05;3.30;;;20.70;99.90;;;;;;5044355;28;20036;-64
2022/06/12 10:21:38;;;;;;;14.88;3.88;;;20.40;99.90;;;;;;5054044;28;20036;-64
2022/06/12 10:24:04;;;;;;;10.25;3.50;;;20.20;99.90;;;;;;5050650;28;20037;-65
2022/06/12 10:26:32;;;;;;;16.15;4.30;;;20.00;99.90;;;;;;5075386;28;20068;-67
2022/06/12 10:29:14;;;;;;;14.38;3.67;;;19.90;99.90;;;;;;5014535;28;20479;-68
2022/06/12 10:31:54;;;;;;;;;;;19.90;99.90;;;;;;5031829;28;20514;-66
2022/06/12 10:34:23;;;;;;;17.67;3.90;;;19.80;99.90;;;;;;5035900;28;19934;-65
2022/06/12 10:36:49;;;;;;;15.65;3.85;;;20.10;99.90;;;;;;5041336;28;20167;-67
2022/06/12 10:39:21;;;;;;;11.70;3.13;;;20.10;99.90;;;;;;5044907;28;20530;-65
2022/06/12 10:41:54;;;;;;;12.52;3.08;;;20.10;99.90;;;;;;5022959;28;20167;-66
2022/06/12 10:44:34;;;;;;;10.73;3.20;;;20.20;99.90;;;;;;5021753;28;20702;-67
2022/06/12 10:47:13;;;;;;;15.52;3.38;;;20.30;99.90;;;;;;5050168;28;20044;-66
2022/06/12 10:49:39;;;;;;;10.68;3.20;;;20.30;99.90;;;;;;5040863;28;20044;-65
2022/06/12 10:52:19;;;;;;;11.57;3.35;;;20.20;99.90;;;;;;5017311;28;20562;-67
2022/06/12 10:54:45;;;;;;;8.73;2.60;;;20.30;99.90;;;;;;5034335;28;20041;-67
2022/06/12 10:57:14;;;;;;;9.13;2.47;;;20.40;99.90;;;;;;5040559;28;20067;-67
2022/06/12 11:00:15;;;;;;;8.07;2.80;;;20.40;99.90;;;;;;5035217;28;20052;-64
2022/06/12 11:02:59;;;;;;;12.70;3.10;;;20.40;99.90;;;;;;5040958;28;20467;-68
2022/06/12 11:05:32;;;;;;;11.48;3.10;;;20.50;99.90;;;;;;5038009;28;20040;-69
2022/06/12 11:08:09;;;;;;;12.40;3.20;;;20.40;99.90;;;;;;5039031;28;20045;-66
2022/06/12 11:10:52;;;;;;;7.97;2.58;;;20.40;99.90;;;;;;5033115;28;20036;-68
2022/06/12 11:13:50;;;;;;;10.07;2.85;;;20.40;99.90;;;;;;5035868;28;20045;-67
2022/06/12 11:16:41;;;;;;;14.48;3.50;;;20.40;99.90;;;;;;4953545;28;20147;-68
2022/06/12 11:19:07;;;;;;;11.77;3.03;;;20.50;99.90;;;;;;5039842;28;20037;-69
2022/06/12 11:21:55;;;;;;;9.75;2.75;;;20.50;99.90;;;;;;5038998;28;20214;-67
2022/06/12 11:24:33;;;;;;;10.27;3.17;;;20.50;99.90;;;;;;5036176;28;20040;-67
2022/06/12 11:27:38;;;;;;;12.77;3.30;;;20.60;99.90;;;;;;5038163;28;20045;-70
2022/06/12 11:30:25;;;;;;;11.55;3.25;;;20.50;99.90;;;;;;5035401;28;20059;-67
2022/06/12 11:33:12;;;;;;;13.65;3.22;;;20.50;99.90;;;;;;5041510;28;20070;-66
2022/06/12 11:35:50;;;;;;;12.23;3.22;;;20.60;99.90;;;;;;5042905;28;20041;-66
2022/06/12 11:38:34;;;;;;;9.60;3.08;;;20.60;99.90;;;;;;5033817;28;20044;-66
2022/06/12 11:41:42;;;;;;;8.07;2.95;;;20.50;99.90;;;;;;5039110;28;20099;-65
2022/06/12 11:44:28;;;;;;;9.57;3.35;;;20.50;99.90;;;;;;5039825;28;20033;-66
2022/06/12 11:47:15;;;;;;;12.27;3.10;;;20.60;99.90;;;;;;5029700;28;20033;-68
2022/06/12 11:50:10;;;;;;;7.68;2.53;;;20.60;99.90;;;;;;5035662;28;20074;-67
2022/06/12 11:53:00;;;;;;;7.55;2.60;;;20.60;99.90;;;;;;5037574;28;20127;-65
2022/06/12 11:55:49;;;;;;;11.20;3.30;;;20.50;99.90;;;;;;5040790;28;20387;-68
2022/06/12 11:58:53;;;;;;;9.10;2.65;;;20.40;99.90;;;;;;5065405;28;20090;-65
2022/06/12 12:01:31;;;;;;;7.78;3.08;;;20.50;99.90;;;;;;5031987;28;20043;-65
2022/06/12 12:04:21;;;;;;;10.40;2.75;;;20.40;99.90;;;;;;5040205;28;20554;-69
2022/06/12 12:06:56;;;;;;;7.10;2.70;;;20.30;99.90;;;;;;5034121;28;20372;-64
2022/06/12 12:09:46;;;;;;;12.88;2.83;;;20.30;99.90;;;;;;5043523;28;20055;-64
2022/06/12 12:12:19;;;;;;;10.98;3.42;;;20.20;99.90;;;;;;5030619;28;20041;-64
2022/06/12 12:14:46;;;;;;;9.32;3.05;;;20.10;99.90;;;;;;5037643;28;20044;-65
2022/06/12 12:17:22;;;;;;;8.75;2.72;;;20.10;99.90;;;;;;5040896;28;20068;-65
2022/06/12 12:19:53;;;;;;;13.07;3.05;;;20.00;99.90;;;;;;5040545;28;20118;-66
2022/06/12 12:22:32;;;;;;;8.85;2.72;;;20.00;99.90;;;;;;5039428;28;20036;-64
2022/06/12 12:25:07;;;;;;;9.00;2.35;;;20.00;99.90;;;;;;5041308;28;20503;-66
2022/06/12 12:27:40;;;;;;;10.43;2.80;;;20.20;99.90;;;;;;5037261;28;20064;-65
2022/06/12 12:30:19;;;;;;;9.93;2.90;;;20.20;99.90;;;;;;5036892;28;20071;-65
2022/06/12 12:32:48;;;;;;;10.05;3.10;;;20.30;99.90;;;;;;5052013;28;20525;-67
2022/06/12 12:41:11;;;;;;;9.05;2.35;;;20.20;99.90;;;;;;5037098;28;20049;-64
2022/06/12 12:43:31;;;;;;;10.57;2.50;;;20.20;99.90;;;;;;5042285;28;20456;-66
2022/06/12 12:46:04;;;;;;;8.88;2.70;;;20.20;99.90;;;;;;5043280;28;20132;-68
2022/06/12 12:48:45;;;;;;;12.65;2.53;;;20.30;99.90;;;;;;5040136;28;20090;-68
2022/06/12 12:51:42;;;;;;;8.70;2.63;;;20.40;99.90;;;;;;5043368;28;20132;-67
2022/06/12 12:54:17;;;;;;;9.00;2.42;;;20.40;99.90;;;;;;5023841;28;20080;-65
2022/06/12 12:57:04;;;;;;;9.98;3.28;;;20.50;99.90;;;;;;5035758;28;20041;-64
2022/06/12 12:59:42;;;;;;;7.97;2.58;;;20.50;97.70;;;;;;5030869;28;20049;-65
2022/06/12 13:02:31;;;;;;;11.13;2.70;;;20.40;99.40;;;;;;5051590;28;20119;-65
2022/06/12 13:05:01;;;;;;;13.07;3.05;;;20.20;99.20;;;;;;5044476;28;20064;-64
2022/06/12 13:07:45;;;;;;;7.85;2.80;;;20.10;99.20;;;;;;5029631;28;20047;-65
2022/06/12 13:10:25;;;;;;;13.30;3.17;;;20.10;99.90;;;;;;5015794;28;20499;-69
2022/06/12 13:13:32;;;;;;;10.05;2.70;;;20.20;99.90;;;;;;5035814;28;20120;-64
2022/06/12 13:16:08;;;;;;;12.85;3.20;;;20.30;99.90;;;;;;5019795;28;20434;-67
2022/06/12 13:18:33;;;;;;;13.00;3.67;;;20.40;99.90;;;;;;5025988;28;20091;-67
2022/06/12 13:21:27;;;;;;;11.02;3.05;;;20.50;99.90;;;;;;5036696;28;20499;-66
2022/06/12 13:24:24;;;;;;;9.15;3.30;;;20.60;99.90;;;;;;5032684;28;20402;-67
2022/06/12 13:26:50;;;;;;;13.38;3.33;;;20.70;99.90;;;;;;5034736;28;20105;-68
2022/06/12 13:29:19;;;;;;;12.25;3.13;;;20.60;99.90;;;;;;5053224;28;20512;-66
2022/06/12 13:32:05;;;;;;;10.98;3.40;;;20.50;99.90;;;;;;5048271;28;20047;-63